createdAt,value
2023-05-21T00:00:40.826Z,101743.16
2023-05-21T00:03:13.791Z,101737.97
2023-05-21T00:05:44.307Z,101736.56
2023-05-21T00:08:12.304Z,101745.81
2023-05-21T00:10:40.058Z,101730.81
2023-05-21T00:13:09.082Z,101733.53
2023-05-21T00:15:37.117Z,101743.59
2023-05-21T00:18:05.168Z,101730.50
2023-05-21T00:20:33.221Z,101725.31
2023-05-21T00:23:03.903Z,101726.03
2023-05-21T00:25:31.772Z,101733.13
2023-05-21T00:27:59.543Z,101720.59
2023-05-21T00:30:27.296Z,101715.41
2023-05-21T00:32:55.083Z,101720.28
2023-05-21T00:35:22.852Z,101718.88
2023-05-21T00:37:52.060Z,101719.13
2023-05-21T00:40:21.758Z,101718.56
2023-05-21T00:42:49.885Z,101718.81
2023-05-21T00:45:17.626Z,101718.00
2023-05-21T00:47:48.386Z,101720.13
2023-05-21T00:50:17.552Z,101721.47
2023-05-21T00:52:45.837Z,101719.81
2023-05-21T00:55:13.732Z,101719.22
2023-05-21T00:57:42.999Z,101720.56
2023-05-21T01:00:12.125Z,101712.66
2023-05-21T01:02:40.124Z,101713.72
2023-05-21T01:05:08.332Z,101713.97
2023-05-21T01:07:39.147Z,101705.16
2023-05-21T01:10:09.343Z,101716.34
2023-05-21T01:12:40.431Z,101715.53
2023-05-21T01:15:11.356Z,101715.78
2023-05-21T01:17:40.189Z,101716.03
2023-05-21T01:20:11.213Z,101711.91
2023-05-21T01:22:44.585Z,101710.25
2023-05-21T01:25:15.109Z,101712.13
2023-05-21T01:27:42.879Z,101709.66
2023-05-21T01:30:11.651Z,101704.47
2023-05-21T01:32:46.518Z,101706.59
2023-05-21T01:35:18.469Z,101706.03
2023-05-21T01:37:50.244Z,101708.75
2023-05-21T01:40:27.224Z,101702.75
2023-05-21T01:42:55.207Z,101702.97
2023-05-21T01:45:25.019Z,101704.06
2023-05-21T01:47:56.176Z,101704.31
2023-05-21T01:50:25.735Z,101710.81
2023-05-21T01:52:56.869Z,101702.31
2023-05-21T01:55:25.972Z,101704.22
2023-05-21T01:57:53.922Z,101704.22
2023-05-21T02:00:22.566Z,101693.84
2023-05-21T02:02:50.474Z,101688.41
2023-05-21T02:05:18.796Z,101696.81
2023-05-21T02:07:47.438Z,101692.44
2023-05-21T02:10:15.936Z,101688.31
2023-05-21T02:12:45.125Z,101694.00
2023-05-21T02:15:14.282Z,101692.34
2023-05-21T02:17:42.571Z,101684.44
2023-05-21T02:20:12.182Z,101689.34
2023-05-21T02:22:40.362Z,101692.31
2023-05-21T02:25:09.913Z,101692.78
2023-05-21T02:27:38.712Z,101689.25
2023-05-21T02:30:09.911Z,101691.16
2023-05-21T02:32:39.798Z,101690.56
2023-05-21T02:35:08.094Z,101683.50
2023-05-21T02:37:36.559Z,101694.59
2023-05-21T02:40:05.942Z,101690.47
2023-05-21T02:42:33.771Z,101692.38
2023-05-21T02:45:01.555Z,101685.53
2023-05-21T02:47:30.683Z,101680.34
2023-05-21T02:50:00.824Z,101682.25
2023-05-21T02:52:28.800Z,101675.41
2023-05-21T02:54:56.666Z,101665.84
2023-05-21T02:57:24.392Z,101675.91
2023-05-21T02:59:52.132Z,101673.44
2023-05-21T03:02:20.020Z,101670.72
2023-05-21T03:04:50.816Z,101662.81
2023-05-21T03:07:19.793Z,101660.34
2023-05-21T03:09:48.067Z,101662.22
2023-05-21T03:12:15.859Z,101657.88
2023-05-21T03:14:44.156Z,101654.31
2023-05-21T03:17:14.094Z,101654.56
2023-05-21T03:19:42.471Z,101653.75
2023-05-21T03:22:12.286Z,101656.72
2023-05-21T03:24:41.419Z,101660.50
2023-05-21T03:27:09.312Z,101655.31
2023-05-21T03:29:37.651Z,101651.75
2023-05-21T03:32:06.303Z,101659.09
2023-05-21T03:34:35.653Z,101645.91
2023-05-21T03:37:03.493Z,101666.66
2023-05-21T03:39:32.592Z,101663.94
2023-05-21T03:42:00.341Z,101657.94
2023-05-21T03:44:28.065Z,101638.72
2023-05-21T03:46:55.801Z,101659.81
2023-05-21T03:49:23.537Z,101656.53
2023-05-21T03:51:51.322Z,101655.94
2023-05-21T03:54:20.121Z,101648.88
2023-05-21T03:56:49.241Z,101649.34
2023-05-21T03:59:16.947Z,101653.97
2023-05-21T04:01:45.342Z,101656.69
2023-05-21T04:04:13.248Z,101653.38
2023-05-21T04:06:42.346Z,101650.09
2023-05-21T04:09:10.088Z,101649.50
2023-05-21T04:11:38.033Z,101657.88
2023-05-21T04:14:07.283Z,101655.19
2023-05-21T04:16:35.658Z,101657.31
2023-05-21T04:19:03.565Z,101665.44
2023-05-21T04:21:31.908Z,101656.72
2023-05-21T04:24:00.779Z,101659.94
2023-05-21T04:26:29.540Z,101662.41
2023-05-21T04:28:57.691Z,101665.34
2023-05-21T04:31:26.885Z,101667.25
2023-05-21T04:33:54.725Z,101670.19
2023-05-21T04:36:22.457Z,101672.09
2023-05-21T04:38:50.153Z,101667.69
2023-05-21T04:41:19.002Z,101668.75
2023-05-21T04:43:46.915Z,101676.09
2023-05-21T04:46:14.811Z,101677.38
2023-05-21T04:48:45.143Z,101680.09
2023-05-21T04:51:12.877Z,101673.84
2023-05-21T04:53:40.836Z,101679.28
2023-05-21T04:56:09.832Z,101673.03
2023-05-21T04:58:40.581Z,101675.97
2023-05-21T05:01:08.976Z,101670.22
2023-05-21T05:03:36.887Z,101670.56
2023-05-21T05:06:07.765Z,101665.38
2023-05-21T05:08:35.672Z,101663.72
2023-05-21T05:11:03.461Z,101673.75
2023-05-21T05:13:31.355Z,101670.22
2023-05-21T05:16:00.378Z,101672.09
2023-05-21T05:18:28.492Z,101667.75
2023-05-21T05:20:56.283Z,101657.38
2023-05-21T05:23:25.637Z,101664.44
2023-05-21T05:25:53.473Z,101661.97
2023-05-21T05:28:21.369Z,101654.06
2023-05-21T05:30:49.154Z,101655.72
2023-05-21T05:33:16.987Z,101655.72
2023-05-21T05:35:44.739Z,101655.72
2023-05-21T05:38:13.580Z,101660.91
2023-05-21T05:40:42.672Z,101662.78
2023-05-21T05:43:10.449Z,101670.13
2023-05-21T05:45:38.808Z,101667.41
2023-05-21T05:48:07.467Z,101668.22
2023-05-21T05:50:35.325Z,101673.66
2023-05-21T05:53:03.126Z,101672.81
2023-05-21T05:55:31.364Z,101666.56
2023-05-21T05:58:00.501Z,101668.47
2023-05-21T06:00:28.377Z,101656.78
2023-05-21T06:02:56.233Z,101670.34
2023-05-21T06:05:24.152Z,101664.91
2023-05-21T06:07:51.917Z,101666.00
2023-05-21T06:10:20.595Z,101669.53
2023-05-21T06:12:48.496Z,101663.28
2023-05-21T06:15:19.408Z,101663.28
2023-05-21T06:17:47.185Z,101662.34
2023-05-21T06:20:15.063Z,101657.16
2023-05-21T06:22:42.823Z,101666.13
2023-05-21T06:25:11.224Z,101672.97
2023-05-21T06:27:39.754Z,101670.00
2023-05-21T06:30:08.645Z,101669.78
2023-05-21T06:32:37.951Z,101660.31
2023-05-21T06:35:06.863Z,101668.47
2023-05-21T06:37:34.621Z,101676.34
2023-05-21T06:40:02.518Z,101677.44
2023-05-21T06:42:30.308Z,101684.50
2023-05-21T06:44:58.056Z,101676.13
2023-05-21T06:47:25.869Z,101664.44
2023-05-21T06:49:54.967Z,101672.34
2023-05-21T06:52:22.675Z,101662.31
2023-05-21T06:54:50.453Z,101649.13
2023-05-21T06:57:18.245Z,101667.25
2023-05-21T06:59:46.010Z,101668.06
2023-05-21T07:02:13.900Z,101658.63
2023-05-21T07:04:41.705Z,101658.38
2023-05-21T07:07:10.874Z,101660.03
2023-05-21T07:09:38.649Z,101655.19
2023-05-21T07:12:06.938Z,101655.81
2023-05-21T07:14:34.756Z,101651.19
2023-05-21T07:17:02.667Z,101653.66
2023-05-21T07:19:30.558Z,101651.53
2023-05-21T07:21:58.846Z,101643.16
2023-05-21T07:24:28.124Z,101647.50
2023-05-21T07:26:55.936Z,101651.06
2023-05-21T07:29:23.738Z,101651.88
2023-05-21T07:31:51.477Z,101642.66
2023-05-21T07:34:19.250Z,101642.44
2023-05-21T07:36:47.008Z,101646.78
2023-05-21T07:39:14.913Z,101643.84
2023-05-21T07:41:44.061Z,101650.09
2023-05-21T07:44:11.906Z,101643.34
2023-05-21T07:46:39.719Z,101642.28
2023-05-21T07:49:07.554Z,101637.44
2023-05-21T07:51:35.540Z,101645.31
2023-05-21T07:54:03.355Z,101640.72
2023-05-21T07:56:32.399Z,101644.84
2023-05-21T07:59:01.720Z,101641.06
2023-05-21T08:01:29.920Z,101647.31
2023-05-21T08:04:00.787Z,101648.72
2023-05-21T08:06:28.744Z,101646.81
2023-05-21T08:08:57.365Z,101633.25
2023-05-21T08:11:25.130Z,101633.81
2023-05-21T08:13:52.879Z,101637.94
2023-05-21T08:16:23.479Z,101636.06
2023-05-21T08:18:51.486Z,101632.03
2023-05-21T08:21:19.832Z,101631.78
2023-05-21T08:23:47.618Z,101625.03
2023-05-21T08:26:17.159Z,101623.72
2023-05-21T08:28:45.065Z,101613.44
2023-05-21T08:31:12.877Z,101629.22
2023-05-21T08:33:51.418Z,101632.28
2023-05-21T08:36:19.406Z,101621.41
2023-05-21T08:38:47.164Z,101627.19
2023-05-21T08:41:15.668Z,101618.78
2023-05-21T08:43:44.878Z,101613.09
2023-05-21T08:46:13.236Z,101610.97
2023-05-21T08:48:43.461Z,101617.78
2023-05-21T08:51:11.249Z,101619.19
2023-05-21T08:53:39.062Z,101615.97
2023-05-21T08:56:08.273Z,101619.25
2023-05-21T08:58:37.703Z,101617.66
2023-05-21T09:01:05.950Z,101617.44
2023-05-21T09:03:34.182Z,101610.41
2023-05-21T09:06:04.136Z,101604.75
2023-05-21T09:08:36.485Z,101606.97
2023-05-21T09:11:04.324Z,101612.16
2023-05-21T09:13:35.397Z,101605.13
2023-05-21T09:16:04.098Z,101605.13
2023-05-21T09:18:31.870Z,101607.34
2023-05-21T09:21:00.271Z,101616.91
2023-05-21T09:23:30.109Z,101609.56
2023-05-21T09:25:58.330Z,101613.13
2023-05-21T09:28:26.372Z,101610.97
2023-05-21T09:30:54.625Z,101611.53
2023-05-21T09:33:26.972Z,101613.22
2023-05-21T09:35:54.927Z,101611.06
2023-05-21T09:38:23.651Z,101608.94
2023-05-21T09:40:55.776Z,101614.94
2023-05-21T09:43:23.624Z,101604.88
2023-05-21T09:45:53.377Z,101591.47
2023-05-21T09:48:34.627Z,101590.22
2023-05-21T09:51:13.096Z,101599.25
2023-05-21T09:53:51.622Z,101591.94
2023-05-21T09:56:25.373Z,101586.81
2023-05-21T09:58:54.825Z,101589.84
2023-05-21T10:01:22.968Z,101592.88
2023-05-21T10:03:54.982Z,101580.38
2023-05-21T10:06:25.378Z,101586.13
2023-05-21T10:08:55.988Z,101582.06
2023-05-21T10:11:28.337Z,101579.91
2023-05-21T10:14:03.119Z,101569.88
2023-05-21T10:16:33.863Z,101569.09
2023-05-21T10:19:02.087Z,101573.22
2023-05-21T10:21:30.028Z,101562.66
2023-05-21T10:23:58.922Z,101569.22
2023-05-21T10:26:28.314Z,101565.19
2023-05-21T10:29:00.053Z,101568.78
2023-05-21T10:31:28.612Z,101559.53
2023-05-21T10:33:57.195Z,101560.97
2023-05-21T10:36:26.003Z,101556.09
2023-05-21T10:38:55.047Z,101566.47
2023-05-21T10:41:24.879Z,101550.19
2023-05-21T10:44:03.792Z,101536.69
2023-05-21T10:46:57.691Z,101542.75
2023-05-21T10:49:39.578Z,101541.75
2023-05-21T10:52:15.516Z,101542.88
2023-05-21T10:54:58.095Z,101535.84
2023-05-21T10:57:45.701Z,101535.88
2023-05-21T11:00:17.016Z,101536.69
2023-05-21T11:02:45.833Z,101538.38
2023-05-21T11:05:13.738Z,101527.53
2023-05-21T11:07:57.818Z,101514.47
2023-05-21T11:10:32.837Z,101512.03
2023-05-21T11:13:08.063Z,101503.06
2023-05-21T11:16:07.274Z,101497.41
2023-05-21T11:19:00.495Z,101501.78
2023-05-21T11:21:31.246Z,101492.50
2023-05-21T11:24:03.942Z,101497.97
2023-05-21T11:27:04.376Z,101486.53
2023-05-21T11:29:56.687Z,101489.84
2023-05-21T11:32:25.922Z,101480.63
2023-05-21T11:34:53.726Z,101486.94
2023-05-21T11:37:30.120Z,101481.50
2023-05-21T11:40:00.028Z,101492.44
2023-05-21T11:42:32.590Z,101487.28
2023-05-21T11:45:01.585Z,101481.28
2023-05-21T11:47:32.221Z,101483.50
2023-05-21T11:50:01.701Z,101483.81
2023-05-21T11:52:30.420Z,101473.19
2023-05-21T11:54:59.869Z,101475.09
2023-05-21T11:57:30.912Z,101482.22
2023-05-21T11:59:59.714Z,101480.59
2023-05-21T12:02:28.807Z,101468.34
2023-05-21T12:05:00.217Z,101476.81
2023-05-21T12:07:29.985Z,101458.25
2023-05-21T12:09:58.042Z,101464.53
2023-05-21T12:12:35.316Z,101461.56
2023-05-21T12:15:12.529Z,101453.94
2023-05-21T12:17:40.406Z,101454.22
2023-05-21T12:20:10.791Z,101454.78
2023-05-21T12:22:43.136Z,101453.69
2023-05-21T12:25:12.055Z,101458.88
2023-05-21T12:27:42.032Z,101460.50
2023-05-21T12:30:11.127Z,101450.16
2023-05-21T12:32:43.724Z,101466.25
2023-05-21T12:35:22.655Z,101444.13
2023-05-21T12:37:51.760Z,101458.88
2023-05-21T12:40:20.041Z,101455.06
2023-05-21T12:42:47.911Z,101451.00
2023-05-21T12:45:18.439Z,101456.47
2023-05-21T12:47:50.673Z,101454.56
2023-05-21T12:50:22.241Z,101458.66
2023-05-21T12:52:50.033Z,101464.94
2023-05-21T12:55:18.358Z,101467.66
2023-05-21T12:57:46.567Z,101460.56
2023-05-21T13:00:14.581Z,101467.88
2023-05-21T13:02:44.782Z,101465.69
2023-05-21T13:05:17.897Z,101468.41
2023-05-21T13:07:47.924Z,101478.78
2023-05-21T13:10:17.208Z,101469.78
2023-05-21T13:12:46.018Z,101482.88
2023-05-21T13:15:13.928Z,101470.03
2023-05-21T13:17:41.788Z,101471.13
2023-05-21T13:20:12.401Z,101474.97
2023-05-21T13:22:42.835Z,101466.75
2023-05-21T13:25:12.753Z,101472.22
2023-05-21T13:27:40.538Z,101470.84
2023-05-21T13:30:11.328Z,101468.38
2023-05-21T13:32:40.038Z,101467.81
2023-05-21T13:35:08.748Z,101464.81
2023-05-21T13:37:37.153Z,101458.81
2023-05-21T13:40:05.873Z,101468.38
2023-05-21T13:42:37.780Z,101457.72
2023-05-21T13:45:06.163Z,101453.88
2023-05-21T13:47:35.631Z,101454.66
2023-05-21T13:50:05.254Z,101459.03
2023-05-21T13:52:33.004Z,101453.03
2023-05-21T13:55:01.032Z,101453.03
2023-05-21T13:57:30.849Z,101444.25
2023-05-21T14:00:00.909Z,101446.16
2023-05-21T14:02:28.805Z,101445.59
2023-05-21T14:04:56.682Z,101437.66
2023-05-21T14:07:24.429Z,101430.53
2023-05-21T14:09:52.583Z,101426.69
2023-05-21T14:12:20.689Z,101423.38
2023-05-21T14:14:49.802Z,101427.19
2023-05-21T14:17:19.063Z,101424.44
2023-05-21T14:19:48.231Z,101429.34
2023-05-21T14:22:16.002Z,101427.13
2023-05-21T14:24:43.752Z,101409.63
2023-05-21T14:27:13.164Z,101414.28
2023-05-21T14:29:42.476Z,101411.53
2023-05-21T14:32:10.329Z,101409.06
2023-05-21T14:34:40.366Z,101416.69
2023-05-21T14:37:08.212Z,101399.72
2023-05-21T14:39:36.021Z,101405.44
2023-05-21T14:42:05.233Z,101399.97
2023-05-21T14:44:32.967Z,101399.09
2023-05-21T14:47:00.868Z,101405.66
2023-05-21T14:49:28.701Z,101395.22
2023-05-21T14:51:57.869Z,101396.88
2023-05-21T14:54:25.631Z,101395.47
2023-05-21T14:56:54.235Z,101382.84
2023-05-21T14:59:22.121Z,101386.66
2023-05-21T15:01:50.176Z,101390.22
2023-05-21T15:04:18.003Z,101380.66
2023-05-21T15:06:45.968Z,101386.38
2023-05-21T15:09:15.103Z,101389.63
2023-05-21T15:11:43.942Z,101378.97
2023-05-21T15:14:11.715Z,101391.56
2023-05-21T15:16:39.611Z,101368.06
2023-05-21T15:19:07.544Z,101385.25
2023-05-21T15:21:35.422Z,101380.31
2023-05-21T15:24:03.194Z,101373.72
2023-05-21T15:26:32.497Z,101366.34
2023-05-21T15:29:00.271Z,101373.16
2023-05-21T15:31:28.054Z,101371.78
2023-05-21T15:33:55.854Z,101374.22
2023-05-21T15:36:23.627Z,101376.97
2023-05-21T15:38:51.404Z,101375.31
2023-05-21T15:41:19.242Z,101389.03
2023-05-21T15:43:48.485Z,101380.81
2023-05-21T15:46:16.333Z,101380.47
2023-05-21T15:48:44.154Z,101375.22
2023-05-21T15:51:11.910Z,101385.63
2023-05-21T15:53:39.703Z,101377.41
2023-05-21T15:56:09.094Z,101380.13
2023-05-21T15:58:36.883Z,101395.22
2023-05-21T16:01:06.168Z,101396.31
2023-05-21T16:03:34.008Z,101386.47
2023-05-21T16:06:01.913Z,101385.63
2023-05-21T16:08:29.715Z,101373.03
2023-05-21T16:10:58.100Z,101383.88
2023-05-21T16:13:26.472Z,101384.19
2023-05-21T16:15:54.312Z,101380.91
2023-05-21T16:18:23.466Z,101380.91
2023-05-21T16:20:51.316Z,101383.34
2023-05-21T16:23:19.133Z,101386.38
2023-05-21T16:25:46.904Z,101390.22
2023-05-21T16:28:14.696Z,101392.16
2023-05-21T16:30:42.570Z,101384.22
2023-05-21T16:33:11.565Z,101377.59
2023-05-21T16:35:40.771Z,101380.63
2023-05-21T16:38:08.641Z,101381.19
2023-05-21T16:40:36.522Z,101385.28
2023-05-21T16:43:04.311Z,101384.47
2023-05-21T16:45:39.757Z,101378.16
2023-05-21T16:48:08.163Z,101380.09
2023-05-21T16:50:36.061Z,101387.19
2023-05-21T16:53:06.815Z,101383.34
2023-05-21T16:55:36.303Z,101384.19
2023-05-21T16:58:05.718Z,101380.03
2023-05-21T17:00:33.600Z,101377.50
2023-05-21T17:03:01.468Z,101381.34
2023-05-21T17:05:29.356Z,101380.25
2023-05-21T17:07:57.242Z,101380.25
2023-05-21T17:10:26.489Z,101383.00
2023-05-21T17:12:54.532Z,101379.72
2023-05-21T17:15:22.434Z,101385.72
2023-05-21T17:17:50.301Z,101382.69
2023-05-21T17:20:18.351Z,101379.66
2023-05-21T17:22:46.166Z,101387.88
2023-05-21T17:25:13.970Z,101386.25
2023-05-21T17:27:43.136Z,101387.06
2023-05-21T17:30:11.560Z,101375.31
2023-05-21T17:32:39.421Z,101380.50
2023-05-21T17:35:08.310Z,101380.50
2023-05-21T17:37:36.111Z,101379.16
2023-05-21T17:40:04.350Z,101376.41
2023-05-21T17:42:32.252Z,101384.63
2023-05-21T17:45:01.424Z,101381.06
2023-05-21T17:47:29.200Z,101379.97
2023-05-21T17:49:57.039Z,101376.63
2023-05-21T17:52:25.641Z,101382.66
2023-05-21T17:54:53.518Z,101390.88
2023-05-21T17:57:21.437Z,101386.50
2023-05-21T17:59:49.256Z,101390.88
2023-05-21T18:02:18.420Z,101390.06
2023-05-21T18:04:46.213Z,101387.31
2023-05-21T18:07:13.989Z,101391.16
2023-05-21T18:09:42.819Z,101387.59
2023-05-21T18:12:11.011Z,101387.88
2023-05-21T18:14:38.862Z,101390.34
2023-05-21T18:17:06.993Z,101392.25
2023-05-21T18:19:36.201Z,101393.09
2023-05-21T18:22:05.070Z,101392.25
2023-05-21T18:24:32.868Z,101391.75
2023-05-21T18:27:00.923Z,101392.03
2023-05-21T18:29:28.735Z,101393.94
2023-05-21T18:31:56.613Z,101398.31
2023-05-21T18:34:24.459Z,101395.06
2023-05-21T18:36:54.543Z,101394.75
2023-05-21T18:39:24.832Z,101400.78
2023-05-21T18:42:01.552Z,101397.22
2023-05-21T18:44:39.956Z,101401.06
2023-05-21T18:47:08.384Z,101394.47
2023-05-21T18:49:36.532Z,101401.59
2023-05-21T18:52:06.791Z,101394.19
2023-05-21T18:54:34.685Z,101400.47
2023-05-21T18:57:02.504Z,101395.00
2023-05-21T18:59:31.265Z,101402.41
2023-05-21T19:01:59.173Z,101394.19
2023-05-21T19:04:27.433Z,101389.81
2023-05-21T19:06:55.260Z,101387.06
2023-05-21T19:09:24.489Z,101396.41
2023-05-21T19:11:52.452Z,101391.22
2023-05-21T19:14:23.263Z,101395.88
2023-05-21T19:16:51.080Z,101389.91
2023-05-21T19:19:18.952Z,101390.19
2023-05-21T19:21:46.882Z,101399.25
2023-05-21T19:24:14.685Z,101404.78
2023-05-21T19:26:43.865Z,101400.47
2023-05-21T19:29:11.948Z,101412.00
2023-05-21T19:31:39.745Z,101416.41
2023-05-21T19:34:10.536Z,101415.59
2023-05-21T19:36:52.150Z,101421.34
2023-05-21T19:39:21.146Z,101418.38
2023-05-21T19:41:51.635Z,101418.38
2023-05-21T19:44:19.534Z,101398.22
2023-05-21T19:46:48.591Z,101420.56
2023-05-21T19:49:16.442Z,101427.97
2023-05-21T19:51:44.313Z,101418.13
2023-05-21T19:54:12.178Z,101430.16
2023-05-21T19:56:40.057Z,101425.50
2023-05-21T19:59:09.249Z,101428.53
2023-05-21T20:01:39.528Z,101430.47
2023-05-21T20:04:07.825Z,101424.16
2023-05-21T20:06:36.081Z,101428.00
2023-05-21T20:09:04.016Z,101425.56
2023-05-21T20:11:31.996Z,101413.25
2023-05-21T20:13:59.807Z,101417.63
2023-05-21T20:16:29.975Z,101419.00
2023-05-21T20:18:58.363Z,101420.13
2023-05-21T20:21:26.280Z,101431.34
2023-05-21T20:23:54.236Z,101430.81
2023-05-21T20:26:23.191Z,101433.31
2023-05-21T20:28:51.030Z,101428.91
2023-05-21T20:31:18.945Z,101435.22
2023-05-21T20:33:50.371Z,101438.00
2023-05-21T20:36:18.499Z,101437.22
2023-05-21T20:38:47.166Z,101444.06
2023-05-21T20:41:15.305Z,101435.88
2023-05-21T20:43:45.480Z,101436.97
2023-05-21T20:46:13.803Z,101440.28
2023-05-21T20:48:41.759Z,101434.84
2023-05-21T20:51:11.144Z,101435.41
2023-05-21T20:53:38.894Z,101438.69
2023-05-21T20:56:08.075Z,101441.75
2023-05-21T20:58:36.166Z,101441.47
2023-05-21T21:01:03.960Z,101434.38
2023-05-21T21:03:34.180Z,101444.22
2023-05-21T21:06:03.065Z,101439.84
2023-05-21T21:08:34.587Z,101434.66
2023-05-21T21:11:02.433Z,101437.94
2023-05-21T21:13:30.156Z,101437.13
2023-05-21T21:15:57.900Z,101436.88
2023-05-21T21:18:25.688Z,101428.41
2023-05-21T21:20:54.016Z,101436.63
2023-05-21T21:23:22.153Z,101439.38
2023-05-21T21:25:51.432Z,101441.84
2023-05-21T21:28:19.953Z,101440.22
2023-05-21T21:30:47.762Z,101431.19
2023-05-21T21:33:16.620Z,101431.47
2023-05-21T21:35:44.559Z,101442.69
2023-05-21T21:38:12.342Z,101438.31
2023-05-21T21:40:40.318Z,101434.75
2023-05-21T21:43:09.644Z,101440.22
2023-05-21T21:45:37.466Z,101443.75
2023-05-21T21:48:05.880Z,101425.47
2023-05-21T21:50:33.706Z,101442.13
2023-05-21T21:53:03.596Z,101445.16
2023-05-21T21:55:31.458Z,101439.16
2023-05-21T21:57:59.231Z,101444.06
2023-05-21T22:00:28.525Z,101441.63
2023-05-21T22:02:56.794Z,101438.63
2023-05-21T22:05:24.705Z,101443.25
2023-05-21T22:07:52.889Z,101449.81
2023-05-21T22:10:21.298Z,101442.72
2023-05-21T22:12:49.020Z,101447.66
2023-05-21T22:15:22.837Z,101447.09
2023-05-21T22:17:53.453Z,101444.38
2023-05-21T22:20:22.316Z,101446.03
2023-05-21T22:22:51.353Z,101441.09
2023-05-21T22:25:20.268Z,101446.84
2023-05-21T22:27:48.068Z,101432.09
2023-05-21T22:30:16.055Z,101444.94
2023-05-21T22:32:43.832Z,101437.03
2023-05-21T22:35:13.584Z,101438.13
2023-05-21T22:37:41.484Z,101433.78
2023-05-21T22:40:10.817Z,101432.97
2023-05-21T22:42:39.171Z,101430.50
2023-05-21T22:45:08.424Z,101431.59
2023-05-21T22:47:39.695Z,101427.22
2023-05-21T22:50:08.501Z,101424.78
2023-05-21T22:52:38.175Z,101426.13
2023-05-21T22:55:06.644Z,101418.78
2023-05-21T22:57:34.670Z,101427.50
2023-05-21T23:00:02.487Z,101423.97
2023-05-21T23:02:30.419Z,101425.88
2023-05-21T23:04:58.724Z,101429.69
2023-05-21T23:07:26.737Z,101435.44
2023-05-21T23:09:55.951Z,101432.97
2023-05-21T23:12:23.801Z,101435.44
2023-05-21T23:14:51.608Z,101443.09
2023-05-21T23:17:19.352Z,101438.44
2023-05-21T23:19:49.943Z,101431.34
2023-05-21T23:22:17.712Z,101427.53
2023-05-21T23:24:45.627Z,101425.88
2023-05-21T23:27:14.771Z,101429.72
2023-05-21T23:29:42.626Z,101430.81
2023-05-21T23:32:10.509Z,101435.44
2023-05-21T23:34:38.341Z,101426.72
2023-05-21T23:37:06.258Z,101415.22
2023-05-21T23:39:34.071Z,101416.56
2023-05-21T23:42:01.958Z,101415.47
2023-05-21T23:44:31.159Z,101417.94
2023-05-21T23:46:58.917Z,101416.31
2023-05-21T23:49:26.712Z,101422.03
2023-05-21T23:51:54.625Z,101431.59
2023-05-21T23:54:22.412Z,101419.56
2023-05-21T23:56:50.179Z,101424.75
2023-05-21T23:59:18.570Z,101407.81
